Time;durP1;ratioP1;P1;durP2;ratioP2;P2;SDS_P1;SDS_P2;PMS_P1;PMS_P2;Temp;Humidity;BMP_temperature;BMP_pressure;BME280_temperature;BME280_humidity;BME280_pressure;Samples;Min_cycle;Max_cycle;Signal;HPM_P1;HPM_P2
2021/05/09 00:01:56;;;;;;;5.65;2.08;;;17.70;74.20;;;;;;5080078;28;20016;-76
2021/05/09 00:04:22;;;;;;;5.00;2.83;;;17.70;74.20;;;;;;5087606;28;20558;-76
2021/05/09 00:06:49;;;;;;;3.47;2.25;;;17.70;74.20;;;;;;5081609;28;20095;-76
2021/05/09 00:09:16;;;;;;;4.20;2.13;;;17.70;74.10;;;;;;5087209;28;20044;-79
2021/05/09 00:11:43;;;;;;;4.20;2.05;;;17.70;74.10;;;;;;5082937;28;20020;-77
2021/05/09 00:14:09;;;;;;;3.88;2.67;;;17.70;74.00;;;;;;5082841;28;20482;-76
2021/05/09 00:16:37;;;;;;;3.85;2.40;;;17.70;74.00;;;;;;5085735;28;20076;-77
2021/05/09 00:19:05;;;;;;;4.95;2.70;;;17.60;74.00;;;;;;5082000;28;20016;-76
2021/05/09 00:21:31;;;;;;;5.97;4.65;;;17.60;74.20;;;;;;5087523;28;20032;-76
2021/05/09 00:23:58;;;;;;;7.47;5.80;;;17.60;73.90;;;;;;5084652;28;20032;-75
2021/05/09 00:26:24;;;;;;;6.97;4.60;;;17.60;73.90;;;;;;5082711;28;20016;-77
2021/05/09 00:28:51;;;;;;;8.88;5.28;;;17.60;74.00;;;;;;5081398;28;20012;-77
2021/05/09 00:31:17;;;;;;;5.38;3.65;;;17.50;73.90;;;;;;5087410;28;20093;-79
2021/05/09 00:33:44;;;;;;;5.43;3.83;;;17.60;73.90;;;;;;5080688;28;20024;-75
2021/05/09 00:36:10;;;;;;;5.50;2.90;;;17.60;73.90;;;;;;5084153;28;20059;-80
2021/05/09 00:38:37;;;;;;;3.67;3.35;;;17.50;73.90;;;;;;5086595;28;20031;-80
2021/05/09 00:41:04;;;;;;;3.45;2.28;;;17.50;73.80;;;;;;5090129;28;20437;-75
2021/05/09 00:43:30;;;;;;;4.45;2.60;;;17.50;73.80;;;;;;5089661;28;20078;-78
2021/05/09 00:45:57;;;;;;;3.33;2.35;;;17.50;73.80;;;;;;5092553;28;20503;-78
2021/05/09 00:48:23;;;;;;;3.78;2.40;;;17.50;73.70;;;;;;5092924;28;20040;-78
2021/05/09 00:50:50;;;;;;;4.80;2.90;;;17.50;73.70;;;;;;5090017;28;20094;-78
2021/05/09 00:53:22;;;;;;;5.65;2.80;;;17.50;73.70;;;;;;5090262;28;20024;-74
2021/05/09 00:55:51;;;;;;;4.22;2.83;;;17.50;73.60;;;;;;5090164;28;20024;-78
2021/05/09 00:58:18;;;;;;;7.32;2.72;;;17.50;73.60;;;;;;5089804;28;20015;-77
2021/05/09 01:00:46;;;;;;;3.90;2.97;;;17.40;73.50;;;;;;5092608;28;20111;-77
2021/05/09 01:03:15;;;;;;;4.88;3.50;;;17.40;73.40;;;;;;5091575;28;20402;-76
2021/05/09 01:05:42;;;;;;;4.75;3.00;;;17.40;73.40;;;;;;5094356;28;20024;-77
2021/05/09 01:08:08;;;;;;;5.50;2.53;;;17.40;73.30;;;;;;5091453;28;20012;-78
2021/05/09 01:10:35;;;;;;;5.18;2.33;;;17.40;73.30;;;;;;5094282;28;20047;-77
2021/05/09 01:13:01;;;;;;;4.50;2.90;;;17.40;73.30;;;;;;5093342;28;20020;-77
2021/05/09 01:15:28;;;;;;;3.78;2.28;;;17.40;73.30;;;;;;5091902;28;20552;-77
2021/05/09 01:17:55;;;;;;;5.13;2.38;;;17.40;73.30;;;;;;5093748;28;20016;-74
2021/05/09 01:20:42;;;;;;;3.90;2.53;;;17.40;73.20;;;;;;5093819;28;20090;-79
2021/05/09 01:23:08;;;;;;;3.63;2.05;;;17.40;73.10;;;;;;5090534;28;20082;-75
2021/05/09 01:25:35;;;;;;;5.22;2.75;;;17.40;73.20;;;;;;5090344;28;20055;-78
2021/05/09 01:28:02;;;;;;;4.72;2.60;;;17.30;73.20;;;;;;5093331;28;20107;-77
2021/05/09 01:30:29;;;;;;;4.95;3.40;;;17.30;73.30;;;;;;5092017;28;20091;-78
2021/05/09 01:32:55;;;;;;;7.25;3.90;;;17.30;73.30;;;;;;5090789;28;20069;-78
2021/05/09 01:35:22;;;;;;;6.30;4.55;;;17.30;73.40;;;;;;5095049;28;20381;-75
2021/05/09 01:37:48;;;;;;;5.07;3.42;;;17.30;73.60;;;;;;5093429;28;20364;-78
2021/05/09 01:40:16;;;;;;;5.18;3.33;;;17.30;73.70;;;;;;5091203;28;20035;-77
2021/05/09 01:42:43;;;;;;;5.93;4.25;;;17.30;73.80;;;;;;5092862;28;20043;-78
2021/05/09 01:45:11;;;;;;;5.75;3.40;;;17.30;74.00;;;;;;5093056;28;20016;-76
2021/05/09 01:47:38;;;;;;;5.20;2.97;;;17.30;74.20;;;;;;5092946;28;20066;-79
2021/05/09 01:50:15;;;;;;;3.40;2.75;;;17.30;74.30;;;;;;5093086;28;20396;-78
2021/05/09 01:52:42;;;;;;;7.18;3.00;;;17.30;74.30;;;;;;5092314;28;20034;-73
2021/05/09 01:55:11;;;;;;;4.18;2.28;;;17.30;74.40;;;;;;5087124;28;20107;-79
2021/05/09 01:57:38;;;;;;;4.88;2.42;;;17.20;74.50;;;;;;5090841;28;20031;-78
2021/05/09 02:00:16;;;;;;;4.00;2.33;;;17.30;74.60;;;;;;5089821;28;20114;-77
2021/05/09 02:02:42;;;;;;;4.18;2.38;;;17.30;74.70;;;;;;5090163;28;20055;-79
2021/05/09 02:05:10;;;;;;;5.47;2.80;;;17.20;74.60;;;;;;5088650;28;20016;-79
2021/05/09 02:07:37;;;;;;;3.70;2.33;;;17.20;74.70;;;;;;5089343;28;20028;-79
2021/05/09 02:10:08;;;;;;;3.45;2.22;;;17.20;74.70;;;;;;5091212;28;20023;-79
2021/05/09 02:12:35;;;;;;;4.55;2.25;;;17.20;74.80;;;;;;5088529;28;20020;-78
2021/05/09 02:15:03;;;;;;;4.78;2.05;;;17.20;74.80;;;;;;5090987;28;20020;-79
2021/05/09 02:17:29;;;;;;;3.15;2.33;;;17.20;75.00;;;;;;5088046;28;20446;-79
2021/05/09 02:19:56;;;;;;;5.20;2.30;;;17.30;75.10;;;;;;5086213;28;20065;-79
2021/05/09 02:22:22;;;;;;;4.93;2.97;;;17.20;75.10;;;;;;5071440;28;20035;-79
2021/05/09 02:24:49;;;;;;;4.38;2.55;;;17.20;75.20;;;;;;5087017;28;20047;-79
2021/05/09 02:27:15;;;;;;;7.38;2.90;;;17.20;75.20;;;;;;5089202;28;20020;-79
2021/05/09 02:29:42;;;;;;;4.00;2.78;;;17.20;75.30;;;;;;5088667;28;20028;-79
2021/05/09 02:32:08;;;;;;;3.03;1.88;;;17.20;75.40;;;;;;5086138;28;20062;-79
2021/05/09 02:34:36;;;;;;;3.92;2.03;;;17.20;75.50;;;;;;5090089;28;20017;-79
2021/05/09 02:37:04;;;;;;;4.95;3.28;;;17.20;75.60;;;;;;5091260;28;20023;-79
2021/05/09 02:39:30;;;;;;;7.93;4.32;;;17.20;75.60;;;;;;5089506;28;20103;-79
2021/05/09 02:41:57;;;;;;;6.88;3.83;;;17.20;75.50;;;;;;5089964;28;20020;-78
2021/05/09 02:44:24;;;;;;;7.10;3.78;;;17.20;75.40;;;;;;5089737;28;20071;-80
2021/05/09 02:46:50;;;;;;;8.10;4.30;;;17.20;75.40;;;;;;5087657;28;20020;-79
2021/05/09 02:49:17;;;;;;;9.07;5.97;;;17.20;75.40;;;;;;5089329;28;20023;-78
2021/05/09 02:51:43;;;;;;;6.07;5.05;;;17.10;75.40;;;;;;5087961;28;20604;-77
2021/05/09 02:54:11;;;;;;;6.53;4.70;;;17.10;75.30;;;;;;5090402;28;20032;-80
2021/05/09 02:56:37;;;;;;;11.25;7.05;;;17.10;75.20;;;;;;5087547;28;20020;-79
2021/05/09 02:59:04;;;;;;;8.27;5.65;;;17.10;75.20;;;;;;5088234;28;20024;-78
2021/05/09 03:01:30;;;;;;;6.07;4.95;;;17.10;75.20;;;;;;5090507;28;20023;-80
2021/05/09 03:03:57;;;;;;;7.63;5.18;;;17.10;75.20;;;;;;5088211;28;20028;-77
2021/05/09 03:06:23;;;;;;;8.50;5.40;;;17.10;75.20;;;;;;5087477;28;20607;-78
2021/05/09 03:08:49;;;;;;;10.00;5.32;;;17.10;75.10;;;;;;5088986;28;20083;-78
2021/05/09 03:11:16;;;;;;;11.82;6.72;;;17.10;75.00;;;;;;5089450;28;20941;-80
2021/05/09 03:13:42;;;;;;;8.73;5.72;;;17.10;74.90;;;;;;5085561;28;20115;-81
2021/05/09 03:16:09;;;;;;;6.95;5.57;;;17.10;74.80;;;;;;5086545;28;20062;-80
2021/05/09 03:18:35;;;;;;;8.18;5.80;;;17.10;74.70;;;;;;5087823;28;20031;-74
2021/05/09 03:21:02;;;;;;;9.30;6.25;;;17.10;74.70;;;;;;5085805;28;20104;-79
2021/05/09 03:23:29;;;;;;;7.97;5.65;;;17.00;74.50;;;;;;5090030;28;20056;-80
2021/05/09 03:25:55;;;;;;;9.38;6.25;;;17.00;74.50;;;;;;5088148;28;20028;-81
2021/05/09 03:28:22;;;;;;;8.25;6.38;;;17.00;74.50;;;;;;5090026;28;20020;-80
2021/05/09 03:30:48;;;;;;;12.45;6.10;;;17.00;74.90;;;;;;5088903;28;20048;-81
2021/05/09 03:33:15;;;;;;;10.80;5.85;;;17.00;74.50;;;;;;5089233;28;20456;-81
2021/05/09 03:35:41;;;;;;;7.88;5.40;;;17.00;74.40;;;;;;5089470;28;20413;-80
2021/05/09 03:38:08;;;;;;;11.68;6.03;;;17.00;74.40;;;;;;5090519;28;20041;-83
2021/05/09 03:40:34;;;;;;;6.57;5.65;;;17.00;74.40;;;;;;5089585;28;20016;-74
2021/05/09 03:43:01;;;;;;;13.25;6.82;;;17.00;74.40;;;;;;5087418;28;20119;-83
2021/05/09 03:45:27;;;;;;;8.88;5.53;;;17.00;74.40;;;;;;5074115;28;20570;-82
2021/05/09 03:47:54;;;;;;;9.73;5.93;;;16.90;74.40;;;;;;5088008;28;20024;-81
2021/05/09 03:50:20;;;;;;;12.85;5.57;;;16.90;74.40;;;;;;5091270;28;20099;-82
2021/05/09 03:52:47;;;;;;;10.02;5.78;;;16.90;74.40;;;;;;5089703;28;20518;-82
2021/05/09 03:55:13;;;;;;;8.43;5.65;;;16.90;74.30;;;;;;5072301;28;20120;-82
2021/05/09 03:57:40;;;;;;;9.05;5.72;;;16.90;74.20;;;;;;5091287;28;20073;-82
2021/05/09 04:00:07;;;;;;;10.27;5.95;;;16.90;74.20;;;;;;5087557;28;20107;-82
2021/05/09 04:02:33;;;;;;;9.25;5.78;;;16.90;74.20;;;;;;5090902;28;20417;-82
2021/05/09 04:05:00;;;;;;;8.40;6.15;;;16.80;74.20;;;;;;5090219;28;20016;-82
2021/05/09 04:07:26;;;;;;;8.82;6.15;;;16.90;74.40;;;;;;5085051;28;20028;-77
2021/05/09 04:09:53;;;;;;;9.07;6.82;;;16.90;75.10;;;;;;5087846;28;20008;-80
2021/05/09 04:12:19;;;;;;;9.77;5.43;;;16.80;74.50;;;;;;5087651;28;20111;-81
2021/05/09 04:14:46;;;;;;;6.97;5.22;;;16.80;74.50;;;;;;5086975;28;20482;-81
2021/05/09 04:17:12;;;;;;;9.68;5.82;;;16.80;74.60;;;;;;5083283;28;20074;-81
2021/05/09 04:19:39;;;;;;;8.57;5.47;;;16.80;74.60;;;;;;5088854;28;20103;-81
2021/05/09 04:22:06;;;;;;;8.60;5.03;;;16.80;74.70;;;;;;5087847;28;20008;-80
2021/05/09 04:24:32;;;;;;;8.35;5.85;;;16.80;74.80;;;;;;5088686;28;20096;-78
2021/05/09 04:26:59;;;;;;;7.47;4.60;;;16.80;74.90;;;;;;5086678;28;20302;-81
2021/05/09 04:29:25;;;;;;;6.72;4.80;;;16.80;74.90;;;;;;5088552;28;20108;-79
2021/05/09 04:31:52;;;;;;;6.38;4.22;;;16.80;75.10;;;;;;5088285;28;20063;-78
2021/05/09 04:34:18;;;;;;;8.23;4.78;;;16.80;75.20;;;;;;5070676;28;20509;-81
2021/05/09 04:36:47;;;;;;;7.35;4.53;;;16.80;75.40;;;;;;5085382;28;20051;-78
2021/05/09 04:39:13;;;;;;;7.72;4.03;;;16.80;75.60;;;;;;5085930;28;20012;-77
2021/05/09 04:41:40;;;;;;;7.38;4.22;;;16.80;75.90;;;;;;5088285;28;20073;-79
2021/05/09 04:44:07;;;;;;;5.30;4.20;;;16.80;76.10;;;;;;5085443;28;20410;-79
2021/05/09 04:46:33;;;;;;;6.53;3.90;;;16.80;76.10;;;;;;5083232;28;20073;-84
2021/05/09 04:49:39;;;;;;;4.78;4.15;;;16.80;76.20;;;;;;5087451;28;20018;-79
2021/05/09 04:52:45;;;;;;;8.27;5.00;;;16.80;76.40;;;;;;5086574;28;20503;-79
2021/05/09 04:55:52;;;;;;;7.30;4.10;;;16.80;76.40;;;;;;5087798;28;20073;-80
2021/05/09 04:58:58;;;;;;;6.53;4.28;;;16.80;76.30;;;;;;5086124;28;20026;-78
2021/05/09 05:02:04;;;;;;;6.50;4.80;;;16.80;76.10;;;;;;5086661;28;20028;-80
2021/05/09 05:05:10;;;;;;;5.68;5.00;;;16.80;76.00;;;;;;5087419;28;20037;-78
2021/05/09 05:08:16;;;;;;;10.82;5.55;;;16.80;75.90;;;;;;5087334;28;20024;-81
2021/05/09 05:11:22;;;;;;;6.60;5.32;;;16.80;75.80;;;;;;5083864;28;20024;-76
2021/05/09 05:14:28;;;;;;;7.78;5.90;;;16.70;75.70;;;;;;5084303;28;20539;-76
2021/05/09 05:17:34;;;;;;;15.77;10.50;;;16.70;75.60;;;;;;5086774;28;20024;-78
2021/05/09 05:20:40;;;;;;;14.55;11.43;;;16.70;75.50;;;;;;5087519;28;20028;-77
2021/05/09 05:23:46;;;;;;;10.07;8.23;;;16.70;75.50;;;;;;5087613;28;20028;-78
2021/05/09 05:26:13;;;;;;;9.55;6.07;;;16.70;75.50;;;;;;5083085;28;20020;-83
2021/05/09 05:28:39;;;;;;;6.38;5.68;;;16.70;75.40;;;;;;5089210;28;20099;-76
2021/05/09 05:31:06;;;;;;;6.13;4.15;;;16.70;75.30;;;;;;5089472;28;20074;-75
2021/05/09 05:33:35;;;;;;;7.90;3.97;;;16.70;75.30;;;;;;5091264;28;20073;-77
2021/05/09 05:36:04;;;;;;;4.72;3.58;;;16.70;75.40;;;;;;5088228;28;20754;-77
2021/05/09 05:38:31;;;;;;;6.00;4.38;;;16.70;75.40;;;;;;5088528;28;20016;-76
2021/05/09 05:40:58;;;;;;;5.57;4.30;;;16.70;75.50;;;;;;5090155;28;20428;-76
2021/05/09 05:43:33;;;;;;;5.93;2.75;;;16.70;75.50;;;;;;5090908;28;20136;-75
2021/05/09 05:46:00;;;;;;;;;;;16.60;75.40;;;;;;5087817;28;20442;-77
2021/05/09 05:48:29;;;;;;;6.68;2.92;;;16.60;75.40;;;;;;5088116;28;19958;-78
2021/05/09 05:50:56;;;;;;;4.68;3.05;;;16.60;75.50;;;;;;5091136;28;20028;-78
2021/05/09 05:53:29;;;;;;;3.25;2.95;;;16.60;75.50;;;;;;5089970;28;20107;-77
2021/05/09 05:55:56;;;;;;;5.47;2.80;;;16.70;75.70;;;;;;5091521;28;20446;-79
2021/05/09 05:58:23;;;;;;;3.65;3.35;;;16.60;75.80;;;;;;5086443;28;20027;-78
2021/05/09 06:00:49;;;;;;;6.72;2.65;;;16.60;75.90;;;;;;5090720;28;20019;-77
2021/05/09 06:03:16;;;;;;;3.90;3.47;;;16.70;76.00;;;;;;5090068;28;20150;-79
2021/05/09 06:05:44;;;;;;;4.30;2.95;;;16.60;76.10;;;;;;5089938;28;20061;-78
2021/05/09 06:08:11;;;;;;;6.20;3.83;;;16.60;76.10;;;;;;5090498;28;20024;-80
2021/05/09 06:10:38;;;;;;;5.75;4.25;;;16.60;76.20;;;;;;5086544;28;20020;-80
2021/05/09 06:13:04;;;;;;;7.82;3.95;;;16.60;76.30;;;;;;5090145;28;20703;-80
2021/05/09 06:15:31;;;;;;;5.45;4.10;;;16.60;76.30;;;;;;5086189;28;20490;-78
2021/05/09 06:17:57;;;;;;;5.20;4.70;;;16.60;76.40;;;;;;5071619;28;20364;-78
2021/05/09 06:20:26;;;;;;;5.88;4.18;;;16.60;76.30;;;;;;5078640;28;20020;-75
2021/05/09 06:22:57;;;;;;;6.85;4.25;;;16.60;76.30;;;;;;5076633;28;20165;-76
2021/05/09 06:25:24;;;;;;;6.65;4.03;;;16.60;76.40;;;;;;5087442;28;20467;-76
2021/05/09 06:27:51;;;;;;;5.40;4.68;;;16.60;76.40;;;;;;5087696;28;20386;-77
2021/05/09 06:30:18;;;;;;;6.05;4.28;;;16.60;76.40;;;;;;5089840;28;20020;-77
2021/05/09 06:33:24;;;;;;;4.35;3.90;;;16.60;76.40;;;;;;5086852;28;20048;-75
2021/05/09 06:36:31;;;;;;;4.75;4.20;;;16.60;76.50;;;;;;5085283;28;20012;-77
2021/05/09 06:39:37;;;;;;;5.53;4.07;;;16.60;76.60;;;;;;5088032;28;20024;-78
2021/05/09 06:42:05;;;;;;;4.40;4.00;;;16.60;76.80;;;;;;5086285;28;20020;-76
2021/05/09 06:44:35;;;;;;;4.18;3.78;;;16.70;76.90;;;;;;5085082;28;20040;-76
2021/05/09 06:47:02;;;;;;;6.55;3.83;;;16.70;77.20;;;;;;5085692;28;20009;-75
2021/05/09 06:49:30;;;;;;;4.35;3.70;;;16.70;77.50;;;;;;5065477;28;20122;-77
2021/05/09 06:51:57;;;;;;;7.22;4.00;;;16.70;77.60;;;;;;5081303;28;20031;-77
2021/05/09 06:54:24;;;;;;;4.43;3.70;;;16.70;77.80;;;;;;5067284;28;20425;-77
2021/05/09 06:56:52;;;;;;;4.35;3.95;;;16.70;78.00;;;;;;5082094;28;20024;-79
2021/05/09 06:59:19;;;;;;;7.88;4.15;;;16.70;78.30;;;;;;5081998;28;20103;-80
2021/05/09 07:01:46;;;;;;;7.13;5.70;;;16.70;78.60;;;;;;5080092;28;20017;-80
2021/05/09 07:04:13;;;;;;;12.68;9.82;;;16.70;78.80;;;;;;5084670;28;20032;-78
2021/05/09 07:06:40;;;;;;;13.10;10.40;;;16.80;79.10;;;;;;5082096;28;20024;-78
2021/05/09 07:09:11;;;;;;;13.73;9.73;;;16.80;79.10;;;;;;5080112;28;20487;-78
2021/05/09 07:11:39;;;;;;;12.20;9.05;;;16.80;79.50;;;;;;5083253;28;20027;-79
2021/05/09 07:14:07;;;;;;;10.52;8.57;;;16.80;79.60;;;;;;5081878;28;20113;-78
2021/05/09 07:16:38;;;;;;;10.07;8.55;;;16.90;79.70;;;;;;5068869;28;20134;-78
2021/05/09 07:19:08;;;;;;;9.48;8.00;;;16.90;79.90;;;;;;5077574;28;20111;-75
2021/05/09 07:21:42;;;;;;;9.23;7.30;;;16.90;80.10;;;;;;5082805;28;20379;-77
2021/05/09 07:24:10;;;;;;;9.35;6.97;;;16.90;80.20;;;;;;5078371;28;20032;-76
2021/05/09 07:26:36;;;;;;;9.57;6.70;;;16.90;80.30;;;;;;5081740;28;20020;-73
2021/05/09 07:29:03;;;;;;;8.32;6.57;;;17.00;80.40;;;;;;5080851;28;20026;-77
2021/05/09 07:31:32;;;;;;;10.18;6.63;;;17.00;80.40;;;;;;5080349;28;20053;-76
2021/05/09 07:33:58;;;;;;;10.20;6.75;;;17.00;80.60;;;;;;5076643;28;20020;-77
2021/05/09 07:36:25;;;;;;;7.35;6.28;;;17.00;80.60;;;;;;5079810;28;20024;-75
2021/05/09 07:38:51;;;;;;;9.60;7.30;;;17.10;80.90;;;;;;5083086;28;20051;-76
2021/05/09 07:41:18;;;;;;;6.57;5.93;;;17.10;80.90;;;;;;5079099;28;20095;-75
2021/05/09 07:43:46;;;;;;;10.32;6.13;;;17.10;81.00;;;;;;5080514;28;20039;-77
2021/05/09 07:46:12;;;;;;;7.82;7.03;;;17.20;81.20;;;;;;5075009;28;20103;-75
2021/05/09 07:48:39;;;;;;;10.23;6.30;;;17.20;81.30;;;;;;5079982;28;20020;-76
2021/05/09 07:51:05;;;;;;;10.15;5.75;;;17.30;81.40;;;;;;5078993;28;20024;-77
2021/05/09 07:53:32;;;;;;;11.35;5.80;;;17.30;81.50;;;;;;5076430;28;20027;-74
2021/05/09 07:55:59;;;;;;;9.85;5.68;;;17.30;81.70;;;;;;5079012;28;20028;-75
2021/05/09 07:58:26;;;;;;;5.75;5.15;;;17.40;81.90;;;;;;5078612;28;20066;-75
2021/05/09 08:00:52;;;;;;;8.13;4.97;;;17.40;82.10;;;;;;5079607;28;20108;-75
2021/05/09 08:03:20;;;;;;;5.45;4.95;;;17.50;82.30;;;;;;5076457;28;20028;-74
2021/05/09 08:05:47;;;;;;;8.25;5.40;;;17.50;82.50;;;;;;5074477;28;20035;-75
2021/05/09 08:08:14;;;;;;;5.50;4.50;;;17.50;82.50;;;;;;5079383;28;20024;-74
2021/05/09 08:10:42;;;;;;;6.35;4.95;;;17.60;82.70;;;;;;5081997;28;20134;-76
2021/05/09 08:13:11;;;;;;;7.53;5.10;;;17.60;83.40;;;;;;5082440;28;20016;-77
2021/05/09 08:16:17;;;;;;;10.50;4.80;;;17.70;83.00;;;;;;5066334;28;20020;-76
2021/05/09 08:19:23;;;;;;;5.88;4.43;;;17.70;83.10;;;;;;5084563;28;20405;-74
2021/05/09 08:22:29;;;;;;;4.35;3.50;;;17.80;83.10;;;;;;5084739;28;20034;-76
2021/05/09 08:25:37;;;;;;;5.68;3.83;;;17.80;83.20;;;;;;5083455;28;20029;-74
2021/05/09 08:28:43;;;;;;;11.60;10.43;;;17.90;83.60;;;;;;5080234;28;20065;-75
2021/05/09 08:31:49;;;;;;;10.77;8.90;;;17.90;84.00;;;;;;5082179;28;20043;-74
2021/05/09 08:34:16;;;;;;;7.93;6.65;;;18.00;83.60;;;;;;5066227;28;20386;-75
2021/05/09 08:36:42;;;;;;;6.53;4.47;;;18.00;83.60;;;;;;5077083;28;20036;-71
2021/05/09 08:39:09;;;;;;;5.32;4.40;;;18.10;83.20;;;;;;5081559;28;20024;-73
2021/05/09 08:41:40;;;;;;;5.28;4.07;;;18.10;82.40;;;;;;5079492;28;20499;-73
2021/05/09 08:44:10;;;;;;;3.72;2.83;;;18.10;81.60;;;;;;5084736;28;20059;-73
2021/05/09 08:46:38;;;;;;;4.70;2.70;;;18.10;81.30;;;;;;5085523;28;20020;-76
2021/05/09 08:49:05;;;;;;;7.70;4.00;;;18.20;81.10;;;;;;5088926;28;20020;-85
2021/05/09 08:51:32;;;;;;;6.03;2.55;;;18.20;80.80;;;;;;5088996;28;20077;-77
2021/05/09 08:53:59;;;;;;;3.75;2.17;;;18.20;80.40;;;;;;5088264;28;20103;-83
2021/05/09 08:56:26;;;;;;;3.65;1.80;;;18.30;80.40;;;;;;5087301;28;20092;-77
2021/05/09 08:58:53;;;;;;;1.92;1.80;;;18.30;80.20;;;;;;5084152;28;20020;-81
2021/05/09 09:01:20;;;;;;;2.25;1.58;;;18.40;79.70;;;;;;5086190;28;20399;-82
2021/05/09 09:03:47;;;;;;;2.38;1.60;;;18.40;79.50;;;;;;5087934;28;20024;-78
2021/05/09 09:06:19;;;;;;;4.25;2.40;;;18.50;79.20;;;;;;5089723;28;20024;-80
2021/05/09 09:08:52;;;;;;;4.07;1.40;;;18.50;78.80;;;;;;5093039;28;20070;-74
2021/05/09 09:11:26;;;;;;;3.45;1.27;;;18.60;78.80;;;;;;5093525;28;20089;-78
2021/05/09 09:14:09;;;;;;;4.60;1.45;;;18.60;78.70;;;;;;5094146;28;20024;-76
2021/05/09 09:16:36;;;;;;;1.80;1.20;;;18.70;78.70;;;;;;5091307;28;20103;-82
2021/05/09 09:19:10;;;;;;;4.30;1.48;;;18.70;78.60;;;;;;5090069;28;20044;-80
2021/05/09 09:21:37;;;;;;;3.67;1.63;;;18.80;78.20;;;;;;5091581;28;20355;-79
2021/05/09 09:24:07;;;;;;;4.40;1.15;;;18.80;77.30;;;;;;5092017;28;20117;-78
2021/05/09 09:26:49;;;;;;;3.60;1.27;;;18.80;76.20;;;;;;5089877;28;20069;-83
2021/05/09 09:29:36;;;;;;;2.17;0.73;;;18.90;76.10;;;;;;5083619;28;20422;-74
2021/05/09 09:32:06;;;;;;;3.90;0.98;;;18.90;75.80;;;;;;5070987;28;20071;-81
2021/05/09 09:34:48;;;;;;;7.88;1.23;;;18.90;75.30;;;;;;5091401;28;20023;-84
2021/05/09 09:37:20;;;;;;;3.53;1.20;;;19.00;75.10;;;;;;5090007;28;20079;-79
2021/05/09 09:39:58;;;;;;;2.45;1.50;;;19.00;75.00;;;;;;5077336;28;20035;-78
2021/05/09 09:42:51;;;;;;;5.75;1.30;;;19.10;74.80;;;;;;5088444;28;20025;-81
2021/05/09 09:45:26;;;;;;;2.55;0.77;;;19.10;74.40;;;;;;5084124;28;20102;-78
2021/05/09 09:48:01;;;;;;;4.93;1.35;;;19.20;74.00;;;;;;5091812;28;20061;-79
2021/05/09 09:50:34;;;;;;;;;;;19.20;73.80;;;;;;5090063;28;20019;-78
2021/05/09 09:53:02;;;;;;;6.20;2.15;;;19.20;73.80;;;;;;5091111;28;19915;-82
2021/05/09 09:55:29;;;;;;;3.20;1.02;;;19.30;73.50;;;;;;5089033;28;20021;-81
2021/05/09 09:58:03;;;;;;;3.03;1.63;;;19.30;73.20;;;;;;5088363;28;20046;-87
2021/05/09 10:00:29;;;;;;;4.32;1.45;;;19.40;73.00;;;;;;5090016;28;20467;-82
2021/05/09 10:02:56;;;;;;;2.72;1.27;;;19.40;72.70;;;;;;5091240;28;20127;-82
2021/05/09 10:05:23;;;;;;;3.33;1.02;;;19.40;72.60;;;;;;5091448;28;20014;-78
2021/05/09 10:07:50;;;;;;;3.58;1.25;;;19.50;72.50;;;;;;5089448;28;20369;-81
2021/05/09 10:10:16;;;;;;;5.40;1.17;;;19.50;72.40;;;;;;5091712;28;20024;-80
2021/05/09 10:12:43;;;;;;;2.47;0.98;;;19.60;72.00;;;;;;5087934;28;20130;-87
2021/05/09 10:15:10;;;;;;;5.47;1.00;;;19.60;71.80;;;;;;5089965;28;20536;-80
2021/05/09 10:17:37;;;;;;;6.07;1.55;;;19.70;71.70;;;;;;5079280;28;20429;-83
2021/05/09 10:20:09;;;;;;;4.10;1.20;;;19.70;71.60;;;;;;5090327;28;20016;-84
2021/05/09 10:22:36;;;;;;;5.13;1.40;;;19.80;71.40;;;;;;5087906;28;20111;-84
2021/05/09 10:25:03;;;;;;;1.45;1.00;;;19.80;71.20;;;;;;5072298;28;20132;-79
2021/05/09 10:27:41;;;;;;;4.55;1.10;;;19.80;71.30;;;;;;5088007;28;20020;-74
2021/05/09 10:30:13;;;;;;;7.38;1.58;;;19.90;71.00;;;;;;5089631;28;20012;-76
2021/05/09 10:32:39;;;;;;;7.88;3.20;;;20.00;70.70;;;;;;5090807;28;20048;-79
2021/05/09 10:35:07;;;;;;;4.88;1.13;;;20.00;70.70;;;;;;5089357;28;20008;-84
2021/05/09 10:37:38;;;;;;;4.07;0.90;;;20.10;70.50;;;;;;5072552;28;20394;-75
2021/05/09 10:40:26;;;;;;;2.30;0.95;;;20.10;70.20;;;;;;5089027;28;20035;-78
2021/05/09 10:43:04;;;;;;;2.10;0.88;;;20.10;70.10;;;;;;5087349;28;20495;-81
2021/05/09 10:48:24;;;;;;;2.60;0.85;;;20.20;69.70;;;;;;5086783;28;20437;-80
2021/05/09 10:51:06;;;;;;;3.33;1.02;;;20.20;69.60;;;;;;5087268;28;20510;-75
2021/05/09 10:53:36;;;;;;;3.75;0.80;;;20.30;69.50;;;;;;5089754;28;20024;-76
2021/05/09 10:56:07;;;;;;;5.25;1.33;;;20.30;69.30;;;;;;5089688;28;20023;-77
2021/05/09 10:58:44;;;;;;;5.78;2.58;;;20.40;69.50;;;;;;5072610;28;20571;-76
2021/05/09 11:01:11;;;;;;;4.70;2.72;;;20.40;69.30;;;;;;5088773;28;20035;-78
2021/05/09 11:03:38;;;;;;;8.18;5.53;;;20.40;69.10;;;;;;5090397;28;20101;-78
2021/05/09 11:06:08;;;;;;;6.38;3.47;;;20.50;68.90;;;;;;5089807;28;20020;-77
2021/05/09 11:08:43;;;;;;;6.88;6.15;;;20.50;68.80;;;;;;5087243;28;20018;-81
2021/05/09 11:11:13;;;;;;;12.18;2.50;;;20.60;68.60;;;;;;5084206;28;20036;-77
2021/05/09 11:14:03;;;;;;;10.00;3.42;;;20.60;68.60;;;;;;5081182;28;20954;-80
2021/05/09 11:16:43;;;;;;;8.20;2.42;;;20.60;68.50;;;;;;5075630;28;20479;-80
2021/05/09 11:19:13;;;;;;;6.90;2.33;;;20.70;68.40;;;;;;5086363;28;20024;-87
2021/05/09 11:21:49;;;;;;;4.05;1.42;;;20.70;68.10;;;;;;5086054;28;20050;-85
2021/05/09 11:24:21;;;;;;;3.58;1.60;;;20.80;68.00;;;;;;5087467;28;20028;-83
2021/05/09 11:26:53;;;;;;;5.07;1.48;;;20.80;67.90;;;;;;5072060;28;20482;-80
2021/05/09 11:29:27;;;;;;;5.18;1.83;;;20.90;67.70;;;;;;5077441;28;20027;-78
2021/05/09 11:31:55;;;;;;;6.60;2.00;;;20.90;67.50;;;;;;5085948;28;20036;-78
2021/05/09 11:34:24;;;;;;;4.25;1.27;;;21.00;67.20;;;;;;5091994;28;20016;-80
2021/05/09 11:36:53;;;;;;;4.00;1.02;;;21.00;67.30;;;;;;5088494;28;20016;-79
2021/05/09 11:39:39;;;;;;;3.58;1.17;;;21.00;67.00;;;;;;5087309;28;20381;-84
2021/05/09 11:42:10;;;;;;;5.72;2.58;;;21.00;67.00;;;;;;5086717;28;20032;-78
2021/05/09 11:44:53;;;;;;;4.57;2.83;;;21.00;67.10;;;;;;5086704;28;20085;-78
2021/05/09 11:47:25;;;;;;;7.25;2.45;;;21.00;66.80;;;;;;5086958;28;20033;-81
2021/05/09 11:50:06;;;;;;;5.53;2.45;;;21.10;66.80;;;;;;5089573;28;20405;-84
2021/05/09 11:52:40;;;;;;;4.15;2.38;;;21.10;66.70;;;;;;5085529;28;20356;-75
2021/05/09 11:55:11;;;;;;;7.70;2.40;;;21.20;66.70;;;;;;5089019;28;20020;-75
2021/05/09 11:57:38;;;;;;;4.05;2.47;;;21.20;66.70;;;;;;5087905;28;20028;-86
2021/05/09 12:00:09;;;;;;;8.55;3.03;;;21.20;66.40;;;;;;5089688;28;20016;-78
2021/05/09 12:02:38;;;;;;;5.57;2.75;;;21.30;66.20;;;;;;5089970;28;20569;-78
2021/05/09 12:05:16;;;;;;;4.47;2.33;;;21.30;65.90;;;;;;5083283;28;20666;-80
2021/05/09 12:07:44;;;;;;;4.47;2.08;;;21.30;65.60;;;;;;5088230;28;20101;-79
2021/05/09 12:10:29;;;;;;;7.25;2.20;;;21.30;65.50;;;;;;5087973;28;20020;-84
2021/05/09 12:13:04;;;;;;;8.32;2.97;;;21.30;65.40;;;;;;5087654;28;20585;-74
2021/05/09 12:15:33;;;;;;;4.88;2.83;;;21.30;65.50;;;;;;5072935;28;20025;-82
2021/05/09 12:18:00;;;;;;;7.57;2.40;;;21.30;66.00;;;;;;5087209;28;20019;-78
2021/05/09 12:20:35;;;;;;;5.50;3.10;;;21.30;65.10;;;;;;5088995;28;20497;-80
2021/05/09 12:23:10;;;;;;;6.43;3.60;;;21.30;64.80;;;;;;5082575;28;20487;-82
2021/05/09 12:25:46;;;;;;;7.10;2.47;;;21.40;65.00;;;;;;5088385;28;20016;-77
2021/05/09 12:28:19;;;;;;;6.25;2.50;;;21.40;64.80;;;;;;5081942;28;20024;-74
2021/05/09 12:30:47;;;;;;;4.25;2.83;;;21.40;64.80;;;;;;5087792;28;20125;-86
2021/05/09 12:33:31;;;;;;;9.10;4.55;;;21.40;64.80;;;;;;5085992;28;20644;-83
2021/05/09 12:35:59;;;;;;;4.57;3.17;;;21.40;64.70;;;;;;5085469;28;20024;-79
2021/05/09 12:38:27;;;;;;;7.82;2.53;;;21.40;64.30;;;;;;5088962;28;20032;-84
2021/05/09 12:41:06;;;;;;;8.30;2.45;;;21.40;64.60;;;;;;5085366;28;20036;-81
2021/05/09 12:43:45;;;;;;;5.28;3.20;;;21.40;65.30;;;;;;5083311;28;20040;-77
2021/05/09 12:46:42;;;;;;;7.80;2.50;;;21.50;64.60;;;;;;5086686;28;20020;-82
2021/05/09 12:49:23;;;;;;;9.13;3.40;;;21.50;64.70;;;;;;5086495;28;20020;-76
2021/05/09 12:51:58;;;;;;;5.75;1.90;;;21.50;64.50;;;;;;5089315;28;20473;-76
2021/05/09 12:54:45;;;;;;;6.10;2.22;;;21.50;64.50;;;;;;5087026;28;20523;-76
2021/05/09 12:57:26;;;;;;;8.38;3.40;;;21.50;64.20;;;;;;5066687;28;20028;-75
2021/05/09 13:00:00;;;;;;;8.50;2.22;;;21.50;64.30;;;;;;5067991;28;20056;-76
2021/05/09 13:02:30;;;;;;;6.75;2.17;;;21.50;64.30;;;;;;5073844;28;20073;-85
2021/05/09 13:05:12;;;;;;;4.63;1.98;;;21.50;64.30;;;;;;5085425;28;20027;-76
2021/05/09 13:07:38;;;;;;;6.85;1.98;;;21.50;65.00;;;;;;5089124;28;20039;-82
2021/05/09 13:10:05;;;;;;;8.45;1.80;;;21.60;64.20;;;;;;5088333;28;20024;-85
2021/05/09 13:12:32;;;;;;;6.53;2.20;;;21.60;64.20;;;;;;5089453;28;20074;-76